Time;durP1;ratioP1;P1;durP2;ratioP2;P2;SDS_P1;SDS_P2;PMS_P1;PMS_P2;Temp;Humidity;BMP_temperature;BMP_pressure;BME280_temperature;BME280_humidity;BME280_pressure;Samples;Min_cycle;Max_cycle;Signal;HPM_P1;HPM_P2
2021/04/17 00:00:19;;;;;;;4.95;3.10;;;;;;;2.87;73.63;100176.50;5011525;28;20033;-62
2021/04/17 00:02:45;;;;;;;4.88;3.10;;;;;;;2.84;73.67;100177.69;5011827;28;20026;-62
2021/04/17 00:05:11;;;;;;;5.45;3.00;;;;;;;2.74;73.98;100187.63;5012684;28;20140;-64
2021/04/17 00:07:36;;;;;;;4.03;2.97;;;;;;;2.70;74.41;100181.84;5011860;28;20393;-62
2021/04/17 00:10:03;;;;;;;4.97;3.00;;;;;;;2.46;75.72;100169.47;4995146;28;20029;-62
2021/04/17 00:12:29;;;;;;;4.68;3.03;;;;;;;2.49;75.34;100168.31;5011766;28;20049;-62
2021/04/17 00:14:55;;;;;;;5.60;2.97;;;;;;;2.43;75.74;100176.94;5013168;28;20042;-62
2021/04/17 00:17:20;;;;;;;3.40;2.67;;;;;;;2.41;75.38;100168.31;5012655;28;20100;-62
2021/04/17 00:19:48;;;;;;;4.60;3.33;;;;;;;2.34;75.54;100170.78;5013135;28;20030;-61
2021/04/17 00:22:13;;;;;;;4.97;3.50;;;;;;;2.32;75.70;100170.13;5012536;28;20088;-62
2021/04/17 00:24:39;;;;;;;4.50;3.20;;;;;;;2.27;75.74;100175.94;5012939;28;20492;-62
2021/04/17 00:27:06;;;;;;;4.25;3.25;;;;;;;2.37;74.74;100171.31;5012691;28;20077;-62
2021/04/17 00:29:31;;;;;;;4.65;3.35;;;;;;;2.40;74.63;100164.00;5013071;28;20030;-62
2021/04/17 00:31:58;;;;;;;9.52;3.53;;;;;;;2.32;75.28;100173.63;5012481;28;20038;-62
2021/04/17 00:34:23;;;;;;;4.03;3.10;;;;;;;2.25;75.89;100161.22;5011779;28;20080;-62
2021/04/17 00:36:48;;;;;;;4.50;3.17;;;;;;;2.22;75.96;100161.53;5012500;28;20046;-62
2021/04/17 00:39:15;;;;;;;5.85;2.83;;;;;;;2.33;75.39;100164.69;5012857;28;20026;-62
2021/04/17 00:41:40;;;;;;;6.03;2.78;;;;;;;2.37;74.93;100163.38;5011302;28;20046;-62
2021/04/17 00:44:05;;;;;;;3.78;2.80;;;;;;;2.37;74.78;100158.09;5012613;28;20060;-63
2021/04/17 00:46:31;;;;;;;4.07;3.00;;;;;;;2.30;75.70;100154.44;5012382;28;20088;-62
2021/04/17 00:48:57;;;;;;;5.25;2.90;;;;;;;2.33;74.98;100154.09;5011409;28;20520;-62
2021/04/17 00:51:22;;;;;;;3.90;2.95;;;;;;;2.33;74.92;100156.75;5010968;28;20433;-62
2021/04/17 00:53:49;;;;;;;3.53;2.83;;;;;;;2.32;75.19;100152.47;5012923;28;20026;-62
2021/04/17 00:56:17;;;;;;;4.15;3.15;;;;;;;2.34;75.75;100150.44;5012342;28;20137;-62
2021/04/17 00:58:43;;;;;;;5.57;3.28;;;;;;;2.35;75.15;100146.00;5012639;28;20030;-62
2021/04/17 01:01:08;;;;;;;4.72;3.40;;;;;;;2.37;75.00;100147.50;5011040;28;20485;-63
2021/04/17 01:03:54;;;;;;;4.05;3.00;;;;;;;2.28;75.99;100151.13;5016231;28;20042;-62
2021/04/17 01:06:39;;;;;;;3.22;2.70;;;;;;;2.27;76.27;100152.13;5015930;28;20042;-62
2021/04/17 01:09:35;;;;;;;4.07;3.05;;;;;;;2.18;76.75;100139.06;5016470;28;20038;-62
2021/04/17 01:12:04;;;;;;;4.03;2.90;;;;;;;2.15;77.04;100142.88;5015663;28;20050;-63
2021/04/17 01:14:30;;;;;;;5.40;3.00;;;;;;;2.22;76.83;100140.38;5016258;28;20042;-62
2021/04/17 01:16:56;;;;;;;3.78;2.90;;;;;;;2.12;77.41;100138.75;5014575;28;20040;-62
2021/04/17 01:19:39;;;;;;;3.55;2.90;;;;;;;2.11;77.33;100128.31;5014907;28;20491;-62
2021/04/17 01:22:15;;;;;;;4.30;2.90;;;;;;;2.11;76.87;100138.91;5015563;28;20061;-62
2021/04/17 01:24:43;;;;;;;3.67;2.75;;;;;;;2.17;76.83;100135.56;5014677;28;20026;-62
2021/04/17 01:27:09;;;;;;;5.10;3.20;;;;;;;2.15;77.12;100140.22;5015360;28;20081;-62
2021/04/17 01:29:35;;;;;;;3.83;2.70;;;;;;;2.07;77.47;100133.13;4998259;28;20475;-62
2021/04/17 01:32:02;;;;;;;3.70;2.78;;;;;;;2.15;76.79;100146.34;5014066;28;20428;-62
2021/04/17 01:34:27;;;;;;;4.68;3.08;;;;;;;2.13;77.69;100142.22;5014425;28;20026;-62
2021/04/17 01:36:53;;;;;;;5.50;3.42;;;;;;;2.15;77.84;100140.22;5013965;28;20038;-62
2021/04/17 01:39:19;;;;;;;4.10;3.22;;;;;;;2.17;78.70;100146.16;4978072;28;20350;-62
2021/04/17 01:41:46;;;;;;;3.58;2.83;;;;;;;2.15;77.27;100146.34;5010526;28;20104;-62
2021/04/17 01:44:18;;;;;;;5.65;2.90;;;;;;;2.20;77.02;100147.66;4995867;28;20364;-62
2021/04/17 01:46:45;;;;;;;4.57;2.97;;;;;;;2.23;76.53;100144.69;4995534;28;20755;-62
2021/04/17 01:49:13;;;;;;;4.10;3.00;;;;;;;2.25;76.19;100146.19;4994503;28;20038;-62
2021/04/17 01:51:38;;;;;;;5.15;2.78;;;;;;;2.27;75.98;100144.19;4995415;28;20049;-61
2021/04/17 01:54:06;;;;;;;4.05;2.90;;;;;;;2.20;76.56;100143.22;4994743;28;20026;-62
2021/04/17 01:56:34;;;;;;;4.53;2.85;;;;;;;2.24;76.28;100144.50;4995338;28;20042;-62
2021/04/17 01:58:59;;;;;;;3.72;2.95;;;;;;;2.12;77.05;100145.81;5011043;28;20030;-62
2021/04/17 02:01:24;;;;;;;6.25;3.00;;;;;;;2.13;77.27;100152.78;4994188;28;20069;-62
2021/04/17 02:03:50;;;;;;;4.45;3.13;;;;;;;2.07;77.68;100151.63;5010764;28;20042;-62
2021/04/17 02:06:15;;;;;;;3.72;3.05;;;;;;;2.02;78.47;100153.09;5010326;28;20074;-62
2021/04/17 02:08:41;;;;;;;3.33;2.70;;;;;;;1.86;78.60;100146.81;4995428;28;20389;-61
2021/04/17 02:11:06;;;;;;;5.65;3.50;;;;;;;1.99;78.59;100150.78;4995058;28;20039;-60
2021/04/17 02:13:34;;;;;;;6.20;3.88;;;;;;;2.12;77.41;100143.19;4994973;28;20054;-60
2021/04/17 02:16:04;;;;;;;4.13;3.47;;;;;;;2.17;78.26;100138.22;4995053;28;20074;-62
2021/04/17 02:18:35;;;;;;;5.03;3.60;;;;;;;2.12;77.26;100144.03;4995318;28;20089;-62
2021/04/17 02:21:05;;;;;;;5.00;3.58;;;;;;;2.10;76.92;100139.91;5009849;28;20035;-60
2021/04/17 02:23:30;;;;;;;4.47;3.30;;;;;;;2.07;77.56;100142.84;5010306;28;20037;-62
2021/04/17 02:25:57;;;;;;;4.93;3.50;;;;;;;2.02;77.25;100142.53;5009830;28;20035;-62
2021/04/17 02:28:23;;;;;;;4.70;3.80;;;;;;;2.00;77.28;100144.50;4995213;28;20026;-62
2021/04/17 02:30:48;;;;;;;4.85;3.40;;;;;;;1.92;77.73;100146.16;5009721;28;20501;-62
2021/04/17 02:33:14;;;;;;;4.15;3.17;;;;;;;1.80;78.67;100142.19;4995033;28;20031;-62
2021/04/17 02:35:39;;;;;;;4.78;3.50;;;;;;;1.71;78.87;100133.41;4994481;28;20062;-62
2021/04/17 02:38:05;;;;;;;4.55;3.33;;;;;;;1.90;77.67;100124.34;4995214;28;20037;-62
2021/04/17 02:40:30;;;;;;;6.82;3.47;;;;;;;1.88;77.18;100125.50;4994442;28;20481;-62
2021/04/17 02:42:55;;;;;;;5.78;3.53;;;;;;;1.92;76.99;100119.72;4994810;28;20022;-62
2021/04/17 02:45:21;;;;;;;4.80;3.55;;;;;;;1.87;77.28;100121.19;4994324;28;20031;-62
2021/04/17 02:47:46;;;;;;;5.07;3.42;;;;;;;1.75;78.76;100109.28;4994817;28;20062;-62
2021/04/17 02:50:12;;;;;;;6.03;3.47;;;;;;;2.04;75.66;100111.47;4994195;28;20023;-62
2021/04/17 02:52:37;;;;;;;8.48;4.28;;;;;;;2.05;75.03;100110.47;4994657;28;20422;-62
2021/04/17 02:55:04;;;;;;;5.82;3.60;;;;;;;1.72;77.36;100113.09;4994260;28;20035;-62
2021/04/17 02:57:29;;;;;;;4.93;3.20;;;;;;;1.44;79.56;100120.47;5009623;28;20022;-61
2021/04/17 02:59:55;;;;;;;5.57;3.20;;;;;;;1.43;78.63;100113.53;4994617;28;20419;-61
2021/04/17 03:02:20;;;;;;;6.70;3.53;;;;;;;1.48;78.12;100106.78;4994135;28;20401;-61
2021/04/17 03:04:45;;;;;;;4.45;3.67;;;;;;;1.45;78.62;100117.69;4994380;28;20034;-62
2021/04/17 03:07:11;;;;;;;6.80;3.88;;;;;;;1.27;78.44;100122.22;4993976;28;20046;-62
2021/04/17 03:09:36;;;;;;;6.30;4.53;;;;;;;1.14;80.80;100119.22;4994417;28;20041;-62
2021/04/17 03:12:02;;;;;;;6.20;3.92;;;;;;;1.01;81.16;100120.50;4993724;28;20409;-62
2021/04/17 03:14:27;;;;;;;7.53;3.95;;;;;;;1.15;79.63;100118.22;4994368;28;20027;-61
2021/04/17 03:16:53;;;;;;;6.25;4.15;;;;;;;1.29;79.28;100112.34;4993791;28;20045;-62
2021/04/17 03:19:19;;;;;;;5.90;4.22;;;;;;;1.24;79.57;100118.09;4994067;28;20026;-61
2021/04/17 03:21:44;;;;;;;5.97;4.20;;;;;;;1.16;79.85;100111.97;4993759;28;20042;-62
2021/04/17 03:24:10;;;;;;;5.30;4.05;;;;;;;1.25;81.27;100116.31;4993613;28;20034;-62
2021/04/17 03:26:35;;;;;;;5.85;3.80;;;;;;;1.21;79.62;100114.97;4992361;28;20528;-62
2021/04/17 03:29:01;;;;;;;4.95;3.83;;;;;;;1.19;79.81;100119.56;4994040;28;20022;-61
2021/04/17 03:31:26;;;;;;;5.90;3.85;;;;;;;1.10;79.63;100117.88;5008450;28;20077;-61
2021/04/17 03:33:51;;;;;;;6.07;4.10;;;;;;;0.91;80.01;100121.59;5013495;28;20388;-61
2021/04/17 03:36:17;;;;;;;6.60;4.38;;;;;;;1.19;78.33;100115.09;5013247;28;20042;-62
2021/04/17 03:38:42;;;;;;;6.47;4.65;;;;;;;1.41;77.32;100115.50;5013708;28;20022;-61
2021/04/17 03:41:08;;;;;;;6.78;4.78;;;;;;;1.51;76.33;100110.91;5013166;28;20439;-62
2021/04/17 03:43:33;;;;;;;6.20;4.13;;;;;;;1.29;76.90;100128.19;5013499;28;20026;-62
2021/04/17 03:45:58;;;;;;;5.03;3.97;;;;;;;1.09;79.78;100124.97;5012998;28;20459;-62
2021/04/17 03:48:24;;;;;;;5.43;4.40;;;;;;;0.96;79.29;100128.06;5013066;28;20030;-62
2021/04/17 03:50:49;;;;;;;5.63;4.35;;;;;;;1.04;77.95;100130.72;5013161;28;20056;-61
2021/04/17 03:53:15;;;;;;;4.95;4.22;;;;;;;1.35;76.42;100130.19;5013301;28;20033;-62
2021/04/17 03:55:40;;;;;;;5.30;4.55;;;;;;;1.33;76.32;100134.81;5012632;28;20069;-62
2021/04/17 03:58:06;;;;;;;6.07;4.22;;;;;;;1.43;75.36;100138.13;5013307;28;20026;-62
2021/04/17 04:00:31;;;;;;;6.75;4.70;;;;;;;1.20;76.90;100139.69;5012740;28;20050;-62
2021/04/17 04:02:57;;;;;;;5.03;4.20;;;;;;;1.25;76.30;100142.72;5013161;28;20068;-61
2021/04/17 04:05:22;;;;;;;5.85;4.50;;;;;;;1.11;77.17;100140.66;5012629;28;20038;-62
2021/04/17 04:07:48;;;;;;;6.35;4.60;;;;;;;1.25;76.16;100142.72;5013059;28;20103;-62
2021/04/17 04:10:13;;;;;;;5.88;4.20;;;;;;;1.38;75.33;100158.94;5012826;28;20033;-62
2021/04/17 04:12:40;;;;;;;6.55;4.53;;;;;;;1.50;74.51;100162.94;5012945;28;20504;-62
2021/04/17 04:15:06;;;;;;;6.45;4.28;;;;;;;1.53;74.13;100166.25;5012567;28;20034;-62
2021/04/17 04:17:31;;;;;;;5.70;3.90;;;;;;;1.49;73.81;100163.91;5012941;28;20075;-62
2021/04/17 04:19:57;;;;;;;5.88;4.13;;;;;;;1.55;73.54;100162.47;5012867;28;20067;-62
2021/04/17 04:22:22;;;;;;;7.43;4.25;;;;;;;1.50;73.69;100164.75;5012511;28;20038;-62
2021/04/17 04:24:48;;;;;;;6.30;4.15;;;;;;;1.64;72.50;100158.00;5012897;28;20099;-62
2021/04/17 04:27:13;;;;;;;6.03;4.15;;;;;;;1.57;72.76;100152.53;5012554;28;20073;-62
2021/04/17 04:29:38;;;;;;;5.35;3.90;;;;;;;1.58;72.63;100156.03;5012876;28;20424;-62
2021/04/17 04:32:04;;;;;;;6.95;4.43;;;;;;;1.61;72.28;100155.69;5012369;28;20116;-62
2021/04/17 04:34:30;;;;;;;5.20;4.20;;;;;;;1.60;72.22;100161.94;5013069;28;20086;-62
2021/04/17 04:36:55;;;;;;;5.55;4.07;;;;;;;1.68;71.68;100154.06;5012631;28;20076;-62
2021/04/17 04:39:20;;;;;;;5.35;4.18;;;;;;;1.84;70.61;100155.91;5016879;28;20034;-62
2021/04/17 04:41:46;;;;;;;5.20;4.03;;;;;;;1.90;70.46;100161.38;5016342;28;20088;-62
2021/04/17 04:44:11;;;;;;;7.32;4.20;;;;;;;2.12;69.46;100162.53;5016584;28;20037;-62
2021/04/17 04:46:37;;;;;;;6.07;4.22;;;;;;;2.19;69.09;100157.41;5016159;28;20104;-62
2021/04/17 04:49:02;;;;;;;5.55;4.10;;;;;;;2.72;67.61;100164.00;5015460;28;20457;-61
2021/04/17 04:51:28;;;;;;;8.63;4.28;;;;;;;3.01;66.00;100166.06;5016078;28;20046;-62
2021/04/17 04:53:53;;;;;;;5.15;4.15;;;;;;;2.48;67.69;100170.13;5016465;28;20088;-62
2021/04/17 04:56:18;;;;;;;6.63;4.10;;;;;;;2.18;68.96;100166.34;5016102;28;20037;-62
2021/04/17 04:58:44;;;;;;;4.95;3.90;;;;;;;2.14;68.93;100168.47;5016285;28;20026;-62
2021/04/17 05:01:09;;;;;;;5.55;4.05;;;;;;;2.22;69.42;100169.47;5015865;28;20042;-62
2021/04/17 05:03:35;;;;;;;6.10;4.10;;;;;;;2.11;69.66;100171.47;5016159;28;20033;-62
2021/04/17 05:06:00;;;;;;;4.82;3.78;;;;;;;2.34;68.46;100170.78;4998113;28;20038;-62
2021/04/17 05:08:25;;;;;;;5.38;4.00;;;;;;;2.83;66.63;100172.56;4995290;28;20081;-62
2021/04/17 05:10:51;;;;;;;7.88;4.15;;;;;;;4.31;62.66;100170.78;4996128;28;20088;-63
2021/04/17 05:13:16;;;;;;;6.25;4.10;;;;;;;5.39;56.99;100180.97;4996378;28;20051;-62
2021/04/17 05:15:42;;;;;;;4.60;3.50;;;;;;;6.75;52.77;100172.31;4994885;28;20527;-62
2021/04/17 05:18:07;;;;;;;6.63;4.10;;;;;;;5.76;54.23;100173.00;4996342;28;20026;-62
2021/04/17 05:20:33;;;;;;;4.65;3.33;;;;;;;4.25;60.36;100172.34;4996011;28;20038;-62
2021/04/17 05:22:58;;;;;;;4.45;3.63;;;;;;;3.23;63.36;100167.13;4996487;28;20052;-62
2021/04/17 05:25:24;;;;;;;4.93;3.60;;;;;;;2.86;65.02;100169.56;5010947;28;20041;-62
2021/04/17 05:27:49;;;;;;;5.70;3.83;;;;;;;2.99;65.05;100168.03;4996235;28;20519;-62
2021/04/17 05:30:15;;;;;;;5.68;3.40;;;;;;;3.20;63.80;100177.25;4995868;28;20022;-62
2021/04/17 05:32:41;;;;;;;4.68;3.40;;;;;;;3.21;63.24;100165.66;5008027;28;20050;-62
2021/04/17 05:35:07;;;;;;;4.80;3.50;;;;;;;3.15;64.28;100163.72;5014089;28;20456;-62
2021/04/17 05:37:32;;;;;;;4.00;3.25;;;;;;;3.93;61.21;100162.78;5014369;28;20476;-62
2021/04/17 05:39:58;;;;;;;4.97;3.53;;;;;;;4.60;58.54;100162.09;5015598;28;20026;-62
2021/04/17 05:42:23;;;;;;;5.40;3.53;;;;;;;4.78;58.03;100163.56;5015138;28;20041;-62
2021/04/17 05:44:49;;;;;;;5.30;3.47;;;;;;;5.36;55.53;100164.56;5014192;28;20478;-62
2021/04/17 05:47:14;;;;;;;5.30;3.30;;;;;;;5.54;56.85;100169.47;5014483;28;20489;-62
2021/04/17 05:49:40;;;;;;;5.25;3.40;;;;;;;4.97;57.02;100165.69;5015733;28;20084;-63
2021/04/17 05:52:05;;;;;;;4.95;3.67;;;;;;;4.69;57.82;100173.44;5014881;28;20030;-62
2021/04/17 05:54:30;;;;;;;5.78;3.40;;;;;;;5.71;54.89;100165.59;5015515;28;20045;-62
2021/04/17 05:56:56;;;;;;;5.65;3.45;;;;;;;7.75;48.62;100169.09;5014832;28;20401;-62
2021/04/17 05:59:21;;;;;;;6.10;3.58;;;;;;;9.65;43.88;100166.69;5015361;28;20114;-62
2021/04/17 06:01:47;;;;;;;5.10;3.72;;;;;;;10.35;41.81;100168.56;5014750;28;20500;-63
2021/04/17 06:04:14;;;;;;;4.60;3.40;;;;;;;10.71;41.12;100167.03;5014975;28;20469;-62
2021/04/17 06:06:40;;;;;;;4.32;3.40;;;;;;;10.84;39.56;100168.78;5013349;28;20050;-62
2021/04/17 06:09:05;;;;;;;5.68;3.92;;;;;;;11.53;40.20;100172.13;5015130;28;20022;-62
2021/04/17 06:11:31;;;;;;;9.00;4.40;;;;;;;13.01;36.28;100177.78;5014340;28;20042;-63
2021/04/17 06:13:56;;;;;;;6.45;4.30;;;;;;;13.06;36.25;100192.16;5013748;28;20483;-63
2021/04/17 06:16:21;;;;;;;8.07;7.28;;;;;;;12.63;36.44;100179.88;5014398;28;20504;-62
2021/04/17 06:18:47;;;;;;;5.55;4.40;;;;;;;13.08;34.72;100186.50;5013501;28;20461;-62
2021/04/17 06:21:12;;;;;;;7.03;4.72;;;;;;;13.35;34.65;100189.56;5013377;28;20050;-62
2021/04/17 06:23:38;;;;;;;10.45;9.13;;;;;;;12.84;36.82;100188.41;5013371;28;20037;-62
2021/04/17 06:26:03;;;;;;;9.50;5.53;;;;;;;12.29;38.60;100186.81;5014369;28;20053;-62
2021/04/17 06:28:30;;;;;;;5.05;3.70;;;;;;;13.49;34.79;100193.63;5014821;28;20109;-62
2021/04/17 06:30:56;;;;;;;6.55;4.30;;;;;;;14.55;32.99;100186.97;5014192;28;20034;-61
2021/04/17 06:33:21;;;;;;;8.07;4.22;;;;;;;13.40;35.83;100197.75;5014870;28;20022;-62
2021/04/17 06:35:47;;;;;;;5.13;3.33;;;;;;;12.77;36.42;100188.53;5014118;28;20135;-62
2021/04/17 06:38:14;;;;;;;4.93;3.30;;;;;;;12.63;36.52;100187.94;5013426;28;20029;-62
2021/04/17 06:40:40;;;;;;;4.95;2.97;;;;;;;12.24;37.35;100190.19;5014234;28;20049;-62
2021/04/17 06:43:05;;;;;;;5.25;3.20;;;;;;;12.03;39.45;100182.66;5014556;28;20361;-62
2021/04/17 06:45:34;;;;;;;6.00;3.10;;;;;;;13.20;35.48;100181.94;5013870;28;20069;-62
2021/04/17 06:47:59;;;;;;;5.43;3.15;;;;;;;11.29;39.32;100192.66;5014419;28;20084;-62
2021/04/17 06:50:25;;;;;;;7.80;3.08;;;;;;;10.12;42.45;100183.31;5014043;28;20042;-62
2021/04/17 06:52:50;;;;;;;7.22;3.28;;;;;;;8.20;47.27;100181.94;5014423;28;20026;-63
2021/04/17 06:55:16;;;;;;;4.38;3.10;;;;;;;8.12;48.62;100177.59;4996480;28;20414;-63
2021/04/17 06:57:41;;;;;;;4.75;3.10;;;;;;;8.36;48.76;100178.88;5014274;28;20026;-61
2021/04/17 07:00:12;;;;;;;5.05;3.38;;;;;;;8.45;48.60;100178.69;5011603;28;20026;-62
2021/04/17 07:02:38;;;;;;;4.20;3.05;;;;;;;8.51;48.45;100178.72;5014389;28;20022;-61
2021/04/17 07:05:04;;;;;;;4.43;3.05;;;;;;;10.50;43.33;100174.41;4996111;28;20361;-63
2021/04/17 07:07:33;;;;;;;6.07;3.30;;;;;;;11.81;40.33;100183.13;5013966;28;20480;-63
2021/04/17 07:09:58;;;;;;;5.18;3.20;;;;;;;12.66;37.81;100175.91;5014035;28;20041;-63
2021/04/17 07:12:24;;;;;;;4.10;2.80;;;;;;;12.03;41.01;100178.13;5013454;28;20078;-60
2021/04/17 07:14:50;;;;;;;4.57;2.85;;;;;;;11.89;40.02;100184.72;5014182;28;20644;-61
2021/04/17 07:17:16;;;;;;;3.90;2.90;;;;;;;12.64;37.65;100186.88;4995805;28;20034;-61
2021/04/17 07:19:49;;;;;;;5.25;3.10;;;;;;;12.70;37.04;100183.28;5012621;28;20052;-61
2021/04/17 07:22:18;;;;;;;4.65;3.10;;;;;;;13.08;36.72;100184.66;5013218;28;20369;-63
2021/04/17 07:24:44;;;;;;;4.72;2.80;;;;;;;12.96;36.44;100181.16;5012291;28;20531;-63
2021/04/17 07:27:10;;;;;;;4.20;2.80;;;;;;;14.96;32.24;100187.59;5012089;28;20041;-63
2021/04/17 07:29:41;;;;;;;5.25;2.90;;;;;;;12.60;35.39;100177.63;5013650;28;20022;-63
2021/04/17 07:32:16;;;;;;;3.75;2.67;;;;;;;11.89;38.29;100181.22;5013215;28;20041;-63
2021/04/17 07:34:41;;;;;;;3.83;2.65;;;;;;;10.74;38.94;100182.69;5012566;28;20556;-61
2021/04/17 07:37:06;;;;;;;4.88;2.70;;;;;;;10.90;39.11;100183.97;5013320;28;20069;-63
2021/04/17 07:39:37;;;;;;;5.32;2.78;;;;;;;10.88;38.26;100180.69;4995919;28;20084;-62
2021/04/17 07:42:08;;;;;;;4.50;3.03;;;;;;;10.97;38.99;100185.53;5013066;28;20042;-63
2021/04/17 07:44:40;;;;;;;;;;;;;;;11.11;37.92;100180.88;5012651;28;20091;-60
2021/04/17 07:47:06;;;;;;;4.78;2.78;;;;;;;10.54;38.83;100175.63;5013073;28;20362;-63
2021/04/17 07:49:32;;;;;;;5.38;2.67;;;;;;;11.47;38.21;100168.47;5013470;28;20030;-62
2021/04/17 07:52:11;;;;;;;4.80;2.90;;;;;;;11.40;37.63;100179.28;5013027;28;20092;-63
2021/04/17 07:54:37;;;;;;;4.80;2.80;;;;;;;12.68;36.10;100174.63;5012176;28;20113;-63
2021/04/17 07:57:10;;;;;;;4.32;2.70;;;;;;;11.67;37.50;100173.59;5012866;28;20121;-62
2021/04/17 07:59:36;;;;;;;5.07;2.78;;;;;;;11.10;38.73;100173.84;5013355;28;20018;-62
2021/04/17 08:02:02;;;;;;;3.20;2.53;;;;;;;11.19;40.57;100172.53;5012823;28;20453;-63
2021/04/17 08:04:28;;;;;;;3.53;2.60;;;;;;;11.80;38.93;100178.78;5013037;28;20026;-61
2021/04/17 08:06:54;;;;;;;3.60;2.60;;;;;;;10.83;40.18;100172.47;5012689;28;20037;-63
2021/04/17 08:09:21;;;;;;;5.22;2.83;;;;;;;12.17;37.87;100181.41;5013107;28;20077;-61
2021/04/17 08:11:49;;;;;;;4.25;2.70;;;;;;;11.18;38.56;100170.06;5011067;28;20493;-61
2021/04/17 08:14:14;;;;;;;3.78;2.55;;;;;;;11.83;38.14;100173.00;5011914;28;20061;-62
2021/04/17 08:16:40;;;;;;;4.28;2.80;;;;;;;13.15;35.11;100174.59;5011379;28;20026;-63
2021/04/17 08:19:05;;;;;;;3.78;2.58;;;;;;;12.70;36.41;100172.50;4995433;28;20029;-62
2021/04/17 08:21:31;;;;;;;4.70;2.80;;;;;;;13.63;34.50;100169.09;5011253;28;20388;-63
2021/04/17 08:23:56;;;;;;;4.05;2.50;;;;;;;12.60;34.98;100166.88;5012593;28;20026;-63
2021/04/17 08:26:21;;;;;;;3.70;2.50;;;;;;;12.82;35.75;100169.81;4994946;28;20034;-61
2021/04/17 08:28:49;;;;;;;3.33;2.40;;;;;;;13.41;33.01;100161.69;4995291;28;20354;-63
2021/04/17 08:31:31;;;;;;;4.15;2.47;;;;;;;13.04;33.90;100153.06;5012368;28;20038;-61
2021/04/17 08:34:19;;;;;;;3.67;2.45;;;;;;;12.87;33.72;100148.41;5013030;28;20048;-63
2021/04/17 08:36:45;;;;;;;4.57;2.53;;;;;;;13.35;33.07;100151.88;5012432;28;20550;-63
2021/04/17 08:39:33;;;;;;;4.90;2.10;;;;;;;12.23;35.67;100150.09;5012741;28;20499;-62
2021/04/17 08:42:02;;;;;;;3.03;2.22;;;;;;;13.13;32.33;100152.47;5002939;28;20038;-62
2021/04/17 08:44:31;;;;;;;3.40;1.85;;;;;;;10.67;31.10;100150.56;5012953;28;20026;-63
2021/04/17 08:46:56;;;;;;;5.47;2.38;;;;;;;10.46;31.75;100159.81;5012379;28;20434;-61
2021/04/17 08:49:24;;;;;;;2.85;1.70;;;;;;;9.56;32.89;100149.25;5012774;28;20022;-61
2021/04/17 08:51:49;;;;;;;2.25;1.80;;;;;;;10.14;33.15;100135.72;5012420;28;20030;-62
2021/04/17 08:54:16;;;;;;;3.70;1.88;;;;;;;10.48;32.99;100149.72;5012706;28;20096;-62
2021/04/17 08:57:01;;;;;;;4.63;1.80;;;;;;;10.99;34.11;100151.28;5012190;28;20038;-63
2021/04/17 08:59:34;;;;;;;3.78;1.80;;;;;;;12.06;30.52;100142.72;5012600;28;20061;-60
2021/04/17 09:02:04;;;;;;;4.40;2.15;;;;;;;11.13;31.59;100148.44;5012214;28;20088;-63
2021/04/17 09:04:31;;;;;;;3.22;2.10;;;;;;;11.52;31.28;100138.28;5011449;28;20033;-62
2021/04/17 09:06:56;;;;;;;3.65;2.10;;;;;;;10.38;32.67;100146.69;5011743;28;20176;-63
2021/04/17 09:09:23;;;;;;;4.53;1.75;;;;;;;9.87;33.91;100142.28;5012011;28;20323;-63
2021/04/17 09:11:49;;;;;;;3.92;2.30;;;;;;;10.65;34.16;100149.13;5010377;28;20511;-62
2021/04/17 09:14:26;;;;;;;3.10;2.17;;;;;;;11.61;33.88;100137.75;5012644;28;20037;-63
2021/04/17 09:16:55;;;;;;;4.72;2.28;;;;;;;10.62;32.66;100152.25;5012021;28;20042;-62
2021/04/17 09:19:44;;;;;;;3.85;2.00;;;;;;;12.37;32.62;100138.09;5011410;28;20033;-62
2021/04/17 09:22:30;;;;;;;5.18;2.10;;;;;;;13.03;31.63;100128.03;5011934;28;20046;-62
2021/04/17 09:24:59;;;;;;;3.78;1.67;;;;;;;13.59;28.80;100137.28;4996469;28;20073;-63
2021/04/17 09:27:25;;;;;;;5.20;2.00;;;;;;;12.85;30.03;100141.63;4995839;28;20525;-63
2021/04/17 09:29:57;;;;;;;3.42;2.00;;;;;;;12.45;31.67;100135.06;4996241;28;20138;-63
2021/04/17 09:32:23;;;;;;;3.53;1.90;;;;;;;12.59;29.17;100132.16;4995587;28;20400;-63
2021/04/17 09:34:48;;;;;;;2.63;1.70;;;;;;;13.25;27.92;100122.00;5011267;28;20110;-63
2021/04/17 09:37:13;;;;;;;4.40;1.70;;;;;;;13.24;28.31;100120.38;4995616;28;20405;-62
2021/04/17 09:39:44;;;;;;;4.20;1.95;;;;;;;10.76;30.72;100124.28;4996073;28;20377;-62
2021/04/17 09:42:10;;;;;;;3.08;1.90;;;;;;;13.01;29.83;100121.25;4994575;28;20038;-63
2021/04/17 09:44:46;;;;;;;4.05;2.33;;;;;;;12.72;29.56;100111.22;4995881;28;20033;-62
2021/04/17 09:47:14;;;;;;;2.47;1.95;;;;;;;11.40;30.88;100116.75;4995107;28;20039;-62
2021/04/17 09:49:41;;;;;;;5.03;2.10;;;;;;;12.03;30.81;100123.53;4994976;28;20030;-62
2021/04/17 09:52:07;;;;;;;3.65;2.00;;;;;;;11.62;31.93;100123.25;4994222;28;20034;-62
2021/04/17 09:54:33;;;;;;;2.28;1.80;;;;;;;9.77;34.24;100131.22;4995908;28;20032;-62
2021/04/17 09:57:06;;;;;;;6.95;2.00;;;;;;;11.42;32.92;100118.16;4995236;28;20034;-61
2021/04/17 09:59:32;;;;;;;4.53;2.53;;;;;;;12.47;31.42;100113.31;4995866;28;20157;-62
2021/04/17 10:01:58;;;;;;;4.07;1.92;;;;;;;12.13;31.19;100102.31;4993894;28;20537;-60
2021/04/17 10:04:44;;;;;;;2.70;1.77;;;;;;;12.40;30.28;100118.81;4995126;28;20491;-63
2021/04/17 10:07:09;;;;;;;3.42;1.90;;;;;;;11.96;30.10;100118.28;4994794;28;20122;-62
2021/04/17 10:09:35;;;;;;;2.63;1.80;;;;;;;10.07;32.18;100115.38;4995439;28;20022;-62
2021/04/17 10:12:04;;;;;;;3.03;1.90;;;;;;;9.48;33.75;100114.69;4995016;28;20393;-62
2021/04/17 10:14:30;;;;;;;4.57;2.10;;;;;;;9.06;33.79;100114.22;4995679;28;20042;-62
2021/04/17 10:16:55;;;;;;;3.75;2.00;;;;;;;9.12;33.65;100107.25;4994907;28;20034;-62
2021/04/17 10:19:21;;;;;;;3.65;2.03;;;;;;;10.58;32.28;100095.56;4994137;28;20525;-62
2021/04/17 10:21:53;;;;;;;2.88;1.90;;;;;;;10.69;32.05;100102.09;4993775;28;20081;-62
2021/04/17 10:24:27;;;;;;;5.05;2.63;;;;;;;10.79;31.95;100091.66;4993932;28;20089;-62
2021/04/17 10:27:06;;;;;;;2.97;1.90;;;;;;;9.90;32.61;100093.66;4994846;28;20027;-63
2021/04/17 10:29:48;;;;;;;2.78;1.98;;;;;;;9.69;34.17;100082.25;4995289;28;20033;-61
2021/04/17 10:32:24;;;;;;;4.00;2.13;;;;;;;10.20;33.01;100074.25;4994855;28;20118;-63
2021/04/17 10:34:54;;;;;;;3.35;1.92;;;;;;;11.10;32.65;100079.13;4995224;28;20050;-62
2021/04/17 10:37:20;;;;;;;;;;;;;;;11.99;32.17;100064.09;4995039;28;20034;-62
2021/04/17 10:40:07;;;;;;;3.55;2.10;;;;;;;12.22;30.13;100062.47;4995156;28;19960;-62
2021/04/17 10:42:41;;;;;;;3.45;2.10;;;;;;;11.67;32.04;100063.50;4993528;28;20580;-63
2021/04/17 10:45:07;;;;;;;3.35;1.90;;;;;;;11.98;30.06;100072.38;4994331;28;20071;-61
2021/04/17 10:47:32;;;;;;;3.58;1.90;;;;;;;13.59;29.96;100053.78;4994777;28;20030;-63
2021/04/17 10:49:58;;;;;;;3.55;1.90;;;;;;;13.55;29.56;100049.94;4993605;28;20022;-63
2021/04/17 10:52:28;;;;;;;3.15;2.00;;;;;;;12.09;30.68;100058.13;4994521;28;20043;-62
2021/04/17 10:54:54;;;;;;;4.95;1.75;;;;;;;12.00;30.67;100046.09;4994746;28;20034;-62
2021/04/17 10:57:19;;;;;;;5.78;2.40;;;;;;;12.43;29.74;100047.63;4994175;28;20512;-62
2021/04/17 11:00:01;;;;;;;2.50;1.77;;;;;;;10.69;32.00;100038.56;4993293;28;20373;-63
2021/04/17 11:02:28;;;;;;;5.30;2.20;;;;;;;11.07;32.51;100039.34;4994258;28;20037;-63
2021/04/17 11:04:54;;;;;;;3.17;2.17;;;;;;;10.62;32.08;100037.81;4994482;28;20027;-62
2021/04/17 11:07:20;;;;;;;3.00;2.00;;;;;;;10.92;31.77;100020.97;4992807;28;20038;-63
2021/04/17 11:09:48;;;;;;;2.30;1.70;;;;;;;10.90;30.87;100044.50;4977006;28;20053;-62
2021/04/17 11:12:30;;;;;;;5.03;2.20;;;;;;;11.90;30.65;100010.91;4993733;28;20043;-62
2021/04/17 11:15:31;;;;;;;2.78;1.80;;;;;;;11.60;27.60;100025.19;4993182;28;20026;-63
2021/04/17 11:18:17;;;;;;;2.65;1.60;;;;;;;11.55;26.91;100023.19;4972434;28;20513;-62
2021/04/17 11:20:47;;;;;;;3.25;2.08;;;;;;;10.80;28.57;100023.56;4992360;28;20513;-62
2021/04/17 11:23:35;;;;;;;1.92;1.50;;;;;;;10.69;29.02;100032.38;4994347;28;20033;-62
2021/04/17 11:26:23;;;;;;;3.83;1.80;;;;;;;10.70;28.96;100013.38;4993752;28;20034;-62
2021/04/17 11:28:53;;;;;;;2.85;1.75;;;;;;;11.85;26.55;100014.25;4994084;28;20046;-63
2021/04/17 11:31:28;;;;;;;3.80;2.15;;;;;;;11.50;27.99;100020.38;4998508;28;20026;-62